sensor_id;sensor_type;location;lat;lon;timestamp;temperature;humidity
10583;DHT22;33679;51.218;6.786;2023-06-10T00:01:00;25.70;99.30
10583;DHT22;33679;51.218;6.786;2023-06-10T00:03:33;25.70;99.30
10583;DHT22;33679;51.218;6.786;2023-06-10T00:06:07;25.60;99.40
10583;DHT22;33679;51.218;6.786;2023-06-10T00:08:41;25.60;99.40
10583;DHT22;33679;51.218;6.786;2023-06-10T00:11:13;25.60;99.40
10583;DHT22;33679;51.218;6.786;2023-06-10T00:13:47;25.60;99.50
10583;DHT22;33679;51.218;6.786;2023-06-10T00:16:21;25.60;99.50
10583;DHT22;33679;51.218;6.786;2023-06-10T00:18:53;25.60;99.60
10583;DHT22;33679;51.218;6.786;2023-06-10T00:21:33;25.60;99.60
10583;DHT22;33679;51.218;6.786;2023-06-10T00:24:10;25.50;99.90
10583;DHT22;33679;51.218;6.786;2023-06-10T00:26:45;25.50;99.70
10583;DHT22;33679;51.218;6.786;2023-06-10T00:29:19;25.50;99.60
10583;DHT22;33679;51.218;6.786;2023-06-10T00:31:54;25.50;99.60
10583;DHT22;33679;51.218;6.786;2023-06-10T00:34:41;25.40;99.70
10583;DHT22;33679;51.218;6.786;2023-06-10T00:37:13;25.50;99.70
10583;DHT22;33679;51.218;6.786;2023-06-10T00:39:46;25.40;99.60
10583;DHT22;33679;51.218;6.786;2023-06-10T00:42:21;25.50;99.60
10583;DHT22;33679;51.218;6.786;2023-06-10T00:44:55;25.50;99.70
10583;DHT22;33679;51.218;6.786;2023-06-10T00:47:28;25.40;99.60
10583;DHT22;33679;51.218;6.786;2023-06-10T00:50:02;25.40;99.60
10583;DHT22;33679;51.218;6.786;2023-06-10T00:52:36;25.50;99.70
10583;DHT22;33679;51.218;6.786;2023-06-10T00:55:17;25.40;99.60
10583;DHT22;33679;51.218;6.786;2023-06-10T00:57:50;25.40;99.60
10583;DHT22;33679;51.218;6.786;2023-06-10T01:00:23;25.40;99.70
10583;DHT22;33679;51.218;6.786;2023-06-10T01:02:55;25.40;99.70
10583;DHT22;33679;51.218;6.786;2023-06-10T01:05:28;25.40;99.70
10583;DHT22;33679;51.218;6.786;2023-06-10T01:08:06;25.30;99.70
10583;DHT22;33679;51.218;6.786;2023-06-10T01:10:43;25.30;99.70
10583;DHT22;33679;51.218;6.786;2023-06-10T01:13:20;25.30;99.80
10583;DHT22;33679;51.218;6.786;2023-06-10T01:15:56;25.30;99.80
10583;DHT22;33679;51.218;6.786;2023-06-10T01:18:30;25.20;99.80
10583;DHT22;33679;51.218;6.786;2023-06-10T01:21:03;25.20;99.90
10583;DHT22;33679;51.218;6.786;2023-06-10T01:23:37;25.10;99.90
10583;DHT22;33679;51.218;6.786;2023-06-10T01:26:11;25.10;99.90
10583;DHT22;33679;51.218;6.786;2023-06-10T01:28:48;25.10;99.90
10583;DHT22;33679;51.218;6.786;2023-06-10T01:31:31;25.10;99.90
10583;DHT22;33679;51.218;6.786;2023-06-10T01:34:09;25.10;99.90
10583;DHT22;33679;51.218;6.786;2023-06-10T01:36:43;25.00;99.90
10583;DHT22;33679;51.218;6.786;2023-06-10T01:39:21;25.00;99.90
10583;DHT22;33679;51.218;6.786;2023-06-10T01:41:57;25.00;99.90
10583;DHT22;33679;51.218;6.786;2023-06-10T01:44:30;25.00;99.90
10583;DHT22;33679;51.218;6.786;2023-06-10T01:47:02;25.00;99.90
10583;DHT22;33679;51.218;6.786;2023-06-10T01:49:35;25.00;99.90
10583;DHT22;33679;51.218;6.786;2023-06-10T01:52:08;25.00;99.90
10583;DHT22;33679;51.218;6.786;2023-06-10T01:54:42;25.00;99.90
10583;DHT22;33679;51.218;6.786;2023-06-10T01:57:17;25.10;99.90
10583;DHT22;33679;51.218;6.786;2023-06-10T01:59:52;25.00;99.90
10583;DHT22;33679;51.218;6.786;2023-06-10T02:02:24;25.10;99.90
10583;DHT22;33679;51.218;6.786;2023-06-10T02:04:57;25.10;99.90
10583;DHT22;33679;51.218;6.786;2023-06-10T02:07:30;25.10;99.90
10583;DHT22;33679;51.218;6.786;2023-06-10T02:10:06;25.10;99.90
10583;DHT22;33679;51.218;6.786;2023-06-10T02:12:38;25.10;99.90
10583;DHT22;33679;51.218;6.786;2023-06-10T02:15:10;25.10;99.90
10583;DHT22;33679;51.218;6.786;2023-06-10T02:17:43;25.10;99.90
10583;DHT22;33679;51.218;6.786;2023-06-10T02:20:17;25.10;99.90
10583;DHT22;33679;51.218;6.786;2023-06-10T02:22:50;25.10;99.90
10583;DHT22;33679;51.218;6.786;2023-06-10T02:25:25;25.10;99.90
10583;DHT22;33679;51.218;6.786;2023-06-10T02:27:57;25.10;99.90
10583;DHT22;33679;51.218;6.786;2023-06-10T02:30:30;25.00;99.90
10583;DHT22;33679;51.218;6.786;2023-06-10T02:33:02;25.00;99.90
10583;DHT22;33679;51.218;6.786;2023-06-10T02:35:36;24.90;99.90
10583;DHT22;33679;51.218;6.786;2023-06-10T02:38:09;24.90;99.90
10583;DHT22;33679;51.218;6.786;2023-06-10T02:40:43;24.90;99.90
10583;DHT22;33679;51.218;6.786;2023-06-10T02:43:17;24.90;99.90
10583;DHT22;33679;51.218;6.786;2023-06-10T02:45:50;24.80;99.90
10583;DHT22;33679;51.218;6.786;2023-06-10T02:48:24;24.70;99.90
10583;DHT22;33679;51.218;6.786;2023-06-10T02:50:56;24.70;99.90
10583;DHT22;33679;51.218;6.786;2023-06-10T02:53:38;24.70;99.90
10583;DHT22;33679;51.218;6.786;2023-06-10T02:56:16;24.70;99.90
10583;DHT22;33679;51.218;6.786;2023-06-10T02:58:48;24.70;99.90
10583;DHT22;33679;51.218;6.786;2023-06-10T03:01:23;24.70;99.90
10583;DHT22;33679;51.218;6.786;2023-06-10T03:04:09;24.70;99.90
10583;DHT22;33679;51.218;6.786;2023-06-10T03:06:47;24.60;99.90
10583;DHT22;33679;51.218;6.786;2023-06-10T03:09:25;24.60;99.90
10583;DHT22;33679;51.218;6.786;2023-06-10T03:12:07;24.50;99.90
10583;DHT22;33679;51.218;6.786;2023-06-10T03:14:45;24.50;99.90
10583;DHT22;33679;51.218;6.786;2023-06-10T03:17:17;24.50;99.90
10583;DHT22;33679;51.218;6.786;2023-06-10T03:19:51;24.60;99.90
10583;DHT22;33679;51.218;6.786;2023-06-10T03:22:23;24.60;99.90
10583;DHT22;33679;51.218;6.786;2023-06-10T03:25:10;24.50;99.90
10583;DHT22;33679;51.218;6.786;2023-06-10T03:27:49;24.50;99.90
10583;DHT22;33679;51.218;6.786;2023-06-10T03:30:23;24.50;99.90
10583;DHT22;33679;51.218;6.786;2023-06-10T03:32:56;24.50;99.90
10583;DHT22;33679;51.218;6.786;2023-06-10T03:35:31;24.50;99.90
10583;DHT22;33679;51.218;6.786;2023-06-10T03:38:06;24.50;99.90
10583;DHT22;33679;51.218;6.786;2023-06-10T03:40:39;24.50;99.90
10583;DHT22;33679;51.218;6.786;2023-06-10T03:43:13;24.50;99.90
10583;DHT22;33679;51.218;6.786;2023-06-10T03:46:06;24.50;99.90
10583;DHT22;33679;51.218;6.786;2023-06-10T03:48:38;24.50;99.90
10583;DHT22;33679;51.218;6.786;2023-06-10T03:51:11;24.50;99.90
10583;DHT22;33679;51.218;6.786;2023-06-10T03:53:44;24.60;99.90
10583;DHT22;33679;51.218;6.786;2023-06-10T03:56:19;24.60;99.90
10583;DHT22;33679;51.218;6.786;2023-06-10T03:58:53;24.60;99.90
10583;DHT22;33679;51.218;6.786;2023-06-10T04:01:25;24.60;99.90
10583;DHT22;33679;51.218;6.786;2023-06-10T04:03:58;24.70;99.90
10583;DHT22;33679;51.218;6.786;2023-06-10T04:06:38;24.70;99.90
10583;DHT22;33679;51.218;6.786;2023-06-10T04:09:12;24.70;99.90
10583;DHT22;33679;51.218;6.786;2023-06-10T04:11:45;24.60;99.90
10583;DHT22;33679;51.218;6.786;2023-06-10T04:14:19;24.70;99.90
10583;DHT22;33679;51.218;6.786;2023-06-10T04:16:52;24.70;99.90
10583;DHT22;33679;51.218;6.786;2023-06-10T04:19:27;24.70;99.90
10583;DHT22;33679;51.218;6.786;2023-06-10T04:22:03;24.70;99.90
10583;DHT22;33679;51.218;6.786;2023-06-10T04:24:37;24.70;99.90
10583;DHT22;33679;51.218;6.786;2023-06-10T04:27:10;24.80;99.90
10583;DHT22;33679;51.218;6.786;2023-06-10T04:29:44;24.90;99.90
10583;DHT22;33679;51.218;6.786;2023-06-10T04:32:16;24.90;99.90
10583;DHT22;33679;51.218;6.786;2023-06-10T04:34:49;24.90;99.90
10583;DHT22;33679;51.218;6.786;2023-06-10T04:37:23;25.00;99.90
10583;DHT22;33679;51.218;6.786;2023-06-10T04:39:55;25.00;99.90
10583;DHT22;33679;51.218;6.786;2023-06-10T04:42:28;25.00;99.90
10583;DHT22;33679;51.218;6.786;2023-06-10T04:45:03;25.10;99.90
10583;DHT22;33679;51.218;6.786;2023-06-10T04:47:36;25.10;99.90
10583;DHT22;33679;51.218;6.786;2023-06-10T04:50:10;25.10;99.90
10583;DHT22;33679;51.218;6.786;2023-06-10T04:52:42;25.10;99.90
10583;DHT22;33679;51.218;6.786;2023-06-10T04:55:19;25.10;99.90
10583;DHT22;33679;51.218;6.786;2023-06-10T04:57:57;25.10;99.90
10583;DHT22;33679;51.218;6.786;2023-06-10T05:00:32;25.10;99.90
10583;DHT22;33679;51.218;6.786;2023-06-10T05:03:04;25.10;99.90
10583;DHT22;33679;51.218;6.786;2023-06-10T05:05:37;25.10;99.90
10583;DHT22;33679;51.218;6.786;2023-06-10T05:08:09;25.10;99.90
10583;DHT22;33679;51.218;6.786;2023-06-10T05:10:42;25.20;99.90
10583;DHT22;33679;51.218;6.786;2023-06-10T05:13:15;25.20;99.90
10583;DHT22;33679;51.218;6.786;2023-06-10T05:15:51;25.20;99.90
10583;DHT22;33679;51.218;6.786;2023-06-10T05:18:24;25.20;99.90
10583;DHT22;33679;51.218;6.786;2023-06-10T05:20:56;25.30;99.90
10583;DHT22;33679;51.218;6.786;2023-06-10T05:23:28;25.30;99.90
10583;DHT22;33679;51.218;6.786;2023-06-10T05:26:01;25.30;99.90
10583;DHT22;33679;51.218;6.786;2023-06-10T05:28:33;25.30;99.90
10583;DHT22;33679;51.218;6.786;2023-06-10T05:31:07;25.40;99.90
10583;DHT22;33679;51.218;6.786;2023-06-10T05:33:42;25.40;99.90
10583;DHT22;33679;51.218;6.786;2023-06-10T05:36:15;25.50;99.90
10583;DHT22;33679;51.218;6.786;2023-06-10T05:38:47;25.80;99.80
10583;DHT22;33679;51.218;6.786;2023-06-10T05:41:20;26.40;99.50
10583;DHT22;33679;51.218;6.786;2023-06-10T05:43:52;27.30;99.00
10583;DHT22;33679;51.218;6.786;2023-06-10T05:46:26;28.50;98.20
10583;DHT22;33679;51.218;6.786;2023-06-10T05:48:59;29.80;97.00
10583;DHT22;33679;51.218;6.786;2023-06-10T05:51:32;31.20;95.60
10583;DHT22;33679;51.218;6.786;2023-06-10T05:54:05;32.50;94.50
10583;DHT22;33679;51.218;6.786;2023-06-10T05:56:38;33.60;93.30
10583;DHT22;33679;51.218;6.786;2023-06-10T05:59:10;34.50;92.50
10583;DHT22;33679;51.218;6.786;2023-06-10T06:01:44;35.50;91.30
10583;DHT22;33679;51.218;6.786;2023-06-10T06:04:17;36.30;90.20
10583;DHT22;33679;51.218;6.786;2023-06-10T06:06:50;36.90;88.70
10583;DHT22;33679;51.218;6.786;2023-06-10T06:09:22;37.40;88.40
10583;DHT22;33679;51.218;6.786;2023-06-10T06:11:54;37.70;87.40
10583;DHT22;33679;51.218;6.786;2023-06-10T06:14:31;37.80;85.90
10583;DHT22;33679;51.218;6.786;2023-06-10T06:17:05;37.80;85.30
10583;DHT22;33679;51.218;6.786;2023-06-10T06:19:38;37.50;86.00
10583;DHT22;33679;51.218;6.786;2023-06-10T06:22:10;37.00;85.60
10583;DHT22;33679;51.218;6.786;2023-06-10T06:24:42;36.30;85.90
10583;DHT22;33679;51.218;6.786;2023-06-10T06:27:17;35.50;87.20
10583;DHT22;33679;51.218;6.786;2023-06-10T06:29:50;34.90;88.30
10583;DHT22;33679;51.218;6.786;2023-06-10T06:32:25;34.20;89.50
10583;DHT22;33679;51.218;6.786;2023-06-10T06:34:58;33.50;90.00
10583;DHT22;33679;51.218;6.786;2023-06-10T06:37:30;32.90;90.40
10583;DHT22;33679;51.218;6.786;2023-06-10T06:40:19;32.30;90.60
10583;DHT22;33679;51.218;6.786;2023-06-10T06:42:51;31.80;90.70
10583;DHT22;33679;51.218;6.786;2023-06-10T06:45:42;31.40;91.30
10583;DHT22;33679;51.218;6.786;2023-06-10T06:48:15;30.90;91.90
10583;DHT22;33679;51.218;6.786;2023-06-10T06:50:48;30.60;92.60
10583;DHT22;33679;51.218;6.786;2023-06-10T06:53:21;30.40;93.10
10583;DHT22;33679;51.218;6.786;2023-06-10T06:55:54;30.10;93.40
10583;DHT22;33679;51.218;6.786;2023-06-10T06:58:26;29.90;93.70
10583;DHT22;33679;51.218;6.786;2023-06-10T07:00:59;29.60;93.90
10583;DHT22;33679;51.218;6.786;2023-06-10T07:03:33;29.30;94.20
10583;DHT22;33679;51.218;6.786;2023-06-10T07:06:05;29.20;94.40
10583;DHT22;33679;51.218;6.786;2023-06-10T07:08:41;29.10;94.70
10583;DHT22;33679;51.218;6.786;2023-06-10T07:11:13;29.00;94.90
10583;DHT22;33679;51.218;6.786;2023-06-10T07:13:46;28.90;94.90
10583;DHT22;33679;51.218;6.786;2023-06-10T07:16:18;28.80;94.80
10583;DHT22;33679;51.218;6.786;2023-06-10T07:18:53;28.70;94.90
10583;DHT22;33679;51.218;6.786;2023-06-10T07:21:29;28.60;95.10
10583;DHT22;33679;51.218;6.786;2023-06-10T07:24:03;28.60;95.10
10583;DHT22;33679;51.218;6.786;2023-06-10T07:26:36;28.50;95.20
10583;DHT22;33679;51.218;6.786;2023-06-10T07:29:09;28.50;95.00
10583;DHT22;33679;51.218;6.786;2023-06-10T07:31:41;28.50;94.90
10583;DHT22;33679;51.218;6.786;2023-06-10T07:34:15;28.50;95.40
10583;DHT22;33679;51.218;6.786;2023-06-10T07:36:47;28.50;95.50
10583;DHT22;33679;51.218;6.786;2023-06-10T07:39:20;28.50;95.50
10583;DHT22;33679;51.218;6.786;2023-06-10T07:41:52;28.40;95.60
10583;DHT22;33679;51.218;6.786;2023-06-10T07:44:28;28.40;95.60
10583;DHT22;33679;51.218;6.786;2023-06-10T07:47:00;28.40;95.90
10583;DHT22;33679;51.218;6.786;2023-06-10T07:49:36;28.30;96.00
10583;DHT22;33679;51.218;6.786;2023-06-10T07:52:11;28.30;96.00
10583;DHT22;33679;51.218;6.786;2023-06-10T07:54:43;28.40;96.00
10583;DHT22;33679;51.218;6.786;2023-06-10T07:57:15;28.50;95.70
10583;DHT22;33679;51.218;6.786;2023-06-10T07:59:48;28.50;95.70
10583;DHT22;33679;51.218;6.786;2023-06-10T08:02:20;28.50;95.70
10583;DHT22;33679;51.218;6.786;2023-06-10T08:04:54;28.50;95.90
10583;DHT22;33679;51.218;6.786;2023-06-10T08:07:27;28.50;96.00
10583;DHT22;33679;51.218;6.786;2023-06-10T08:10:00;28.40;96.10
10583;DHT22;33679;51.218;6.786;2023-06-10T08:12:33;28.30;96.10
10583;DHT22;33679;51.218;6.786;2023-06-10T08:15:06;28.30;96.10
10583;DHT22;33679;51.218;6.786;2023-06-10T08:17:38;28.30;96.30
10583;DHT22;33679;51.218;6.786;2023-06-10T08:20:12;28.20;96.30
10583;DHT22;33679;51.218;6.786;2023-06-10T08:22:45;28.20;96.40
10583;DHT22;33679;51.218;6.786;2023-06-10T08:25:17;28.20;96.40
10583;DHT22;33679;51.218;6.786;2023-06-10T08:27:49;28.10;96.40
10583;DHT22;33679;51.218;6.786;2023-06-10T08:30:26;28.10;96.40
10583;DHT22;33679;51.218;6.786;2023-06-10T08:33:00;28.20;96.30
10583;DHT22;33679;51.218;6.786;2023-06-10T08:35:34;28.30;96.10
10583;DHT22;33679;51.218;6.786;2023-06-10T08:38:06;28.30;96.20
10583;DHT22;33679;51.218;6.786;2023-06-10T08:40:41;28.30;96.10
10583;DHT22;33679;51.218;6.786;2023-06-10T08:43:19;28.40;95.90
10583;DHT22;33679;51.218;6.786;2023-06-10T08:45:55;28.40;96.00
10583;DHT22;33679;51.218;6.786;2023-06-10T08:48:30;28.50;95.80
10583;DHT22;33679;51.218;6.786;2023-06-10T08:51:10;28.40;95.80
10583;DHT22;33679;51.218;6.786;2023-06-10T08:53:47;28.50;95.80
10583;DHT22;33679;51.218;6.786;2023-06-10T08:56:23;28.60;95.80
10583;DHT22;33679;51.218;6.786;2023-06-10T08:58:58;28.60;95.90
10583;DHT22;33679;51.218;6.786;2023-06-10T09:01:31;28.80;95.90
10583;DHT22;33679;51.218;6.786;2023-06-10T09:04:05;28.80;95.90
10583;DHT22;33679;51.218;6.786;2023-06-10T09:06:40;28.90;95.70
10583;DHT22;33679;51.218;6.786;2023-06-10T09:09:14;28.90;95.70
10583;DHT22;33679;51.218;6.786;2023-06-10T09:11:46;28.90;95.60
10583;DHT22;33679;51.218;6.786;2023-06-10T09:14:19;28.90;95.70
10583;DHT22;33679;51.218;6.786;2023-06-10T09:16:51;28.90;95.80
10583;DHT22;33679;51.218;6.786;2023-06-10T09:19:28;29.00;95.80
10583;DHT22;33679;51.218;6.786;2023-06-10T09:22:03;29.00;95.80
10583;DHT22;33679;51.218;6.786;2023-06-10T09:24:36;29.20;95.80
10583;DHT22;33679;51.218;6.786;2023-06-10T09:27:10;29.20;95.90
10583;DHT22;33679;51.218;6.786;2023-06-10T09:29:52;29.20;95.80
10583;DHT22;33679;51.218;6.786;2023-06-10T09:32:25;29.30;95.50
10583;DHT22;33679;51.218;6.786;2023-06-10T09:35:09;29.40;95.30
10583;DHT22;33679;51.218;6.786;2023-06-10T09:37:48;29.60;95.80
10583;DHT22;33679;51.218;6.786;2023-06-10T09:40:25;29.60;95.90
10583;DHT22;33679;51.218;6.786;2023-06-10T09:42:59;29.50;96.20
10583;DHT22;33679;51.218;6.786;2023-06-10T09:45:32;29.60;96.30
10583;DHT22;33679;51.218;6.786;2023-06-10T09:48:05;29.60;96.20
10583;DHT22;33679;51.218;6.786;2023-06-10T09:50:42;29.60;96.40
10583;DHT22;33679;51.218;6.786;2023-06-10T09:53:18;29.60;96.30
10583;DHT22;33679;51.218;6.786;2023-06-10T09:55:54;29.70;96.20
10583;DHT22;33679;51.218;6.786;2023-06-10T09:58:34;29.70;96.10
10583;DHT22;33679;51.218;6.786;2023-06-10T10:01:09;29.80;95.90
10583;DHT22;33679;51.218;6.786;2023-06-10T10:03:46;29.90;96.00
10583;DHT22;33679;51.218;6.786;2023-06-10T10:06:20;29.80;95.90
10583;DHT22;33679;51.218;6.786;2023-06-10T10:08:55;29.80;96.00
10583;DHT22;33679;51.218;6.786;2023-06-10T10:11:27;29.90;95.60
10583;DHT22;33679;51.218;6.786;2023-06-10T10:14:04;30.00;95.10
10583;DHT22;33679;51.218;6.786;2023-06-10T10:16:40;30.00;95.20
10583;DHT22;33679;51.218;6.786;2023-06-10T10:19:18;30.00;95.30
10583;DHT22;33679;51.218;6.786;2023-06-10T10:21:54;30.10;94.80
10583;DHT22;33679;51.218;6.786;2023-06-10T10:24:33;30.20;94.90
10583;DHT22;33679;51.218;6.786;2023-06-10T10:27:13;30.10;94.80
10583;DHT22;33679;51.218;6.786;2023-06-10T10:29:52;30.20;94.70
10583;DHT22;33679;51.218;6.786;2023-06-10T10:32:36;30.20;94.60
10583;DHT22;33679;51.218;6.786;2023-06-10T10:35:17;30.30;93.90
10583;DHT22;33679;51.218;6.786;2023-06-10T10:37:51;30.30;93.60
10583;DHT22;33679;51.218;6.786;2023-06-10T10:40:27;30.20;93.50
10583;DHT22;33679;51.218;6.786;2023-06-10T10:43:01;30.20;93.30
10583;DHT22;33679;51.218;6.786;2023-06-10T10:45:36;30.30;93.10
10583;DHT22;33679;51.218;6.786;2023-06-10T10:48:11;30.40;93.10
10583;DHT22;33679;51.218;6.786;2023-06-10T10:50:58;30.50;92.70
10583;DHT22;33679;51.218;6.786;2023-06-10T10:53:37;30.40;92.60
10583;DHT22;33679;51.218;6.786;2023-06-10T10:56:15;30.40;92.30
10583;DHT22;33679;51.218;6.786;2023-06-10T10:59:03;30.40;92.50
10583;DHT22;33679;51.218;6.786;2023-06-10T11:01:40;30.40;92.80
10583;DHT22;33679;51.218;6.786;2023-06-10T11:04:19;30.40;92.90
10583;DHT22;33679;51.218;6.786;2023-06-10T11:06:54;30.50;92.80
10583;DHT22;33679;51.218;6.786;2023-06-10T11:09:29;30.50;92.70
10583;DHT22;33679;51.218;6.786;2023-06-10T11:12:05;30.50;93.10
10583;DHT22;33679;51.218;6.786;2023-06-10T11:14:54;30.50;92.70
10583;DHT22;33679;51.218;6.786;2023-06-10T11:17:27;30.50;92.60
10583;DHT22;33679;51.218;6.786;2023-06-10T11:20:00;30.40;92.70
10583;DHT22;33679;51.218;6.786;2023-06-10T11:22:32;30.30;92.70
10583;DHT22;33679;51.218;6.786;2023-06-10T11:25:13;30.30;92.50
10583;DHT22;33679;51.218;6.786;2023-06-10T11:27:51;30.40;91.90
10583;DHT22;33679;51.218;6.786;2023-06-10T11:30:26;30.40;91.80
10583;DHT22;33679;51.218;6.786;2023-06-10T11:32:58;30.40;91.90
10583;DHT22;33679;51.218;6.786;2023-06-10T11:35:31;30.50;91.80
10583;DHT22;33679;51.218;6.786;2023-06-10T11:38:05;30.50;91.60
10583;DHT22;33679;51.218;6.786;2023-06-10T11:40:47;30.50;91.60
10583;DHT22;33679;51.218;6.786;2023-06-10T11:43:21;30.50;91.80
10583;DHT22;33679;51.218;6.786;2023-06-10T11:45:54;30.60;91.80
10583;DHT22;33679;51.218;6.786;2023-06-10T11:48:27;30.70;91.50
10583;DHT22;33679;51.218;6.786;2023-06-10T11:51:05;30.70;91.60
10583;DHT22;33679;51.218;6.786;2023-06-10T11:53:40;30.80;91.50
10583;DHT22;33679;51.218;6.786;2023-06-10T11:56:12;30.80;91.40
10583;DHT22;33679;51.218;6.786;2023-06-10T11:58:52;30.80;91.50
10583;DHT22;33679;51.218;6.786;2023-06-10T12:01:27;30.80;91.50
10583;DHT22;33679;51.218;6.786;2023-06-10T12:04:01;30.90;91.50
10583;DHT22;33679;51.218;6.786;2023-06-10T12:06:41;30.90;91.40
10583;DHT22;33679;51.218;6.786;2023-06-10T12:09:19;30.90;91.20
10583;DHT22;33679;51.218;6.786;2023-06-10T12:11:53;30.90;91.40
10583;DHT22;33679;51.218;6.786;2023-06-10T12:14:52;30.90;91.50
10583;DHT22;33679;51.218;6.786;2023-06-10T12:17:37;31.10;91.30
10583;DHT22;33679;51.218;6.786;2023-06-10T12:20:24;31.10;91.40
10583;DHT22;33679;51.218;6.786;2023-06-10T12:23:10;31.10;91.60
10583;DHT22;33679;51.218;6.786;2023-06-10T12:25:50;31.00;91.80
10583;DHT22;33679;51.218;6.786;2023-06-10T12:28:27;31.00;91.60
10583;DHT22;33679;51.218;6.786;2023-06-10T12:31:10;31.00;91.60
10583;DHT22;33679;51.218;6.786;2023-06-10T12:33:43;31.00;92.00
10583;DHT22;33679;51.218;6.786;2023-06-10T12:36:17;31.00;91.90
10583;DHT22;33679;51.218;6.786;2023-06-10T12:38:52;31.00;91.90
10583;DHT22;33679;51.218;6.786;2023-06-10T12:41:25;31.00;91.90
10583;DHT22;33679;51.218;6.786;2023-06-10T12:43:59;31.10;91.60
10583;DHT22;33679;51.218;6.786;2023-06-10T12:46:37;31.10;91.30
10583;DHT22;33679;51.218;6.786;2023-06-10T12:49:19;31.00;91.20
10583;DHT22;33679;51.218;6.786;2023-06-10T12:51:52;30.90;91.30
10583;DHT22;33679;51.218;6.786;2023-06-10T12:54:26;31.00;91.40
10583;DHT22;33679;51.218;6.786;2023-06-10T12:56:59;30.90;91.30
10583;DHT22;33679;51.218;6.786;2023-06-10T12:59:32;31.00;91.40
10583;DHT22;33679;51.218;6.786;2023-06-10T13:02:06;31.10;91.40
10583;DHT22;33679;51.218;6.786;2023-06-10T13:04:39;31.20;91.50
10583;DHT22;33679;51.218;6.786;2023-06-10T13:07:11;31.30;91.20
10583;DHT22;33679;51.218;6.786;2023-06-10T13:09:44;31.40;91.00
10583;DHT22;33679;51.218;6.786;2023-06-10T13:12:21;31.50;90.80
10583;DHT22;33679;51.218;6.786;2023-06-10T13:14:53;31.60;90.50
10583;DHT22;33679;51.218;6.786;2023-06-10T13:17:27;31.70;90.00
10583;DHT22;33679;51.218;6.786;2023-06-10T13:20:00;31.80;90.20
10583;DHT22;33679;51.218;6.786;2023-06-10T13:22:36;31.90;90.10
10583;DHT22;33679;51.218;6.786;2023-06-10T13:25:09;31.90;89.90
10583;DHT22;33679;51.218;6.786;2023-06-10T13:27:42;32.00;90.40
10583;DHT22;33679;51.218;6.786;2023-06-10T13:30:17;32.00;90.40
10583;DHT22;33679;51.218;6.786;2023-06-10T13:32:52;31.90;90.30
10583;DHT22;33679;51.218;6.786;2023-06-10T13:35:24;31.90;90.40
10583;DHT22;33679;51.218;6.786;2023-06-10T13:37:56;31.80;90.40
10583;DHT22;33679;51.218;6.786;2023-06-10T13:40:29;31.80;90.60
10583;DHT22;33679;51.218;6.786;2023-06-10T13:43:02;31.70;90.70
10583;DHT22;33679;51.218;6.786;2023-06-10T13:45:29;31.60;90.40
10583;DHT22;33679;51.218;6.786;2023-06-10T13:48:04;31.60;90.60
10583;DHT22;33679;51.218;6.786;2023-06-10T13:50:37;31.60;90.70
10583;DHT22;33679;51.218;6.786;2023-06-10T13:53:09;31.60;90.20
10583;DHT22;33679;51.218;6.786;2023-06-10T13:55:43;31.70;90.20
10583;DHT22;33679;51.218;6.786;2023-06-10T13:58:15;31.60;90.20
10583;DHT22;33679;51.218;6.786;2023-06-10T14:00:48;31.70;90.20
10583;DHT22;33679;51.218;6.786;2023-06-10T14:03:22;31.80;90.40
10583;DHT22;33679;51.218;6.786;2023-06-10T14:05:54;31.80;90.30
10583;DHT22;33679;51.218;6.786;2023-06-10T14:08:27;31.90;90.50
10583;DHT22;33679;51.218;6.786;2023-06-10T14:10:59;31.90;90.30
10583;DHT22;33679;51.218;6.786;2023-06-10T14:13:31;32.00;90.40
10583;DHT22;33679;51.218;6.786;2023-06-10T14:16:05;32.10;90.30
10583;DHT22;33679;51.218;6.786;2023-06-10T14:18:39;32.20;90.30
10583;DHT22;33679;51.218;6.786;2023-06-10T14:21:11;32.20;90.60
10583;DHT22;33679;51.218;6.786;2023-06-10T14:23:45;32.20;91.20
10583;DHT22;33679;51.218;6.786;2023-06-10T14:26:18;32.10;91.90
10583;DHT22;33679;51.218;6.786;2023-06-10T14:28:53;32.00;92.00
10583;DHT22;33679;51.218;6.786;2023-06-10T14:31:25;32.00;92.20
10583;DHT22;33679;51.218;6.786;2023-06-10T14:34:01;32.00;92.60
10583;DHT22;33679;51.218;6.786;2023-06-10T14:36:33;32.00;92.10
10583;DHT22;33679;51.218;6.786;2023-06-10T14:39:06;32.00;91.90
10583;DHT22;33679;51.218;6.786;2023-06-10T14:41:38;31.90;91.60
10583;DHT22;33679;51.218;6.786;2023-06-10T14:44:11;31.90;91.50
10583;DHT22;33679;51.218;6.786;2023-06-10T14:46:45;31.90;91.80
10583;DHT22;33679;51.218;6.786;2023-06-10T14:49:19;31.90;91.60
10583;DHT22;33679;51.218;6.786;2023-06-10T14:51:52;31.90;91.20
10583;DHT22;33679;51.218;6.786;2023-06-10T14:54:24;31.80;91.10
10583;DHT22;33679;51.218;6.786;2023-06-10T14:56:57;31.70;91.00
10583;DHT22;33679;51.218;6.786;2023-06-10T14:59:33;31.80;90.90
10583;DHT22;33679;51.218;6.786;2023-06-10T15:02:07;31.90;91.00
10583;DHT22;33679;51.218;6.786;2023-06-10T15:04:41;31.80;91.00
10583;DHT22;33679;51.218;6.786;2023-06-10T15:07:14;31.80;90.90
10583;DHT22;33679;51.218;6.786;2023-06-10T15:09:46;31.80;90.80
10583;DHT22;33679;51.218;6.786;2023-06-10T15:12:19;31.70;90.30
10583;DHT22;33679;51.218;6.786;2023-06-10T15:14:54;31.70;90.50
10583;DHT22;33679;51.218;6.786;2023-06-10T15:17:41;31.70;90.40
10583;DHT22;33679;51.218;6.786;2023-06-10T15:20:15;31.80;90.10
10583;DHT22;33679;51.218;6.786;2023-06-10T15:22:47;31.80;90.40
10583;DHT22;33679;51.218;6.786;2023-06-10T15:25:21;31.80;90.70
10583;DHT22;33679;51.218;6.786;2023-06-10T15:27:53;31.90;90.60
10583;DHT22;33679;51.218;6.786;2023-06-10T15:30:25;31.90;90.10
10583;DHT22;33679;51.218;6.786;2023-06-10T15:32:58;32.00;90.10
10583;DHT22;33679;51.218;6.786;2023-06-10T15:35:31;32.00;89.70
10583;DHT22;33679;51.218;6.786;2023-06-10T15:38:04;32.00;90.10
10583;DHT22;33679;51.218;6.786;2023-06-10T15:40:36;32.00;89.90
10583;DHT22;33679;51.218;6.786;2023-06-10T15:43:12;32.00;89.80
10583;DHT22;33679;51.218;6.786;2023-06-10T15:45:46;32.10;89.10
10583;DHT22;33679;51.218;6.786;2023-06-10T15:48:19;32.10;89.20
10583;DHT22;33679;51.218;6.786;2023-06-10T15:50:53;32.10;89.70
10583;DHT22;33679;51.218;6.786;2023-06-10T15:53:27;32.10;89.40
10583;DHT22;33679;51.218;6.786;2023-06-10T15:55:59;32.20;89.40
10583;DHT22;33679;51.218;6.786;2023-06-10T15:58:32;32.20;88.90
10583;DHT22;33679;51.218;6.786;2023-06-10T16:01:05;32.20;89.00
10583;DHT22;33679;51.218;6.786;2023-06-10T16:03:39;32.20;88.30
10583;DHT22;33679;51.218;6.786;2023-06-10T16:06:13;32.20;88.40
10583;DHT22;33679;51.218;6.786;2023-06-10T16:08:46;32.20;88.40
10583;DHT22;33679;51.218;6.786;2023-06-10T16:11:20;32.10;88.50
10583;DHT22;33679;51.218;6.786;2023-06-10T16:13:54;32.10;88.60
10583;DHT22;33679;51.218;6.786;2023-06-10T16:16:26;32.00;88.50